Time;durP1;ratioP1;P1;durP2;ratioP2;P2;SDS_P1;SDS_P2;PMS_P1;PMS_P2;Temp;Humidity;BMP_temperature;BMP_pressure;BME280_temperature;BME280_humidity;BME280_pressure;Samples;Min_cycle;Max_cycle;Signal;HPM_P1;HPM_P2
2022/01/25 00:36:22;;;;;;;17.93;9.97;;;4.10;91.60;;;;;;20997093;28;20585;-60
2022/01/25 00:46:24;;;;;;;20.03;11.10;;;4.10;91.60;;;;;;20995848;28;20595;-63
2022/01/25 00:56:30;;;;;;;23.00;11.43;;;3.90;91.60;;;;;;20995129;28;20718;-59
2022/01/25 01:06:32;;;;;;;20.23;10.87;;;3.80;91.70;;;;;;20995233;28;20207;-59
2022/01/25 01:47:46;;;;;;;19.20;11.37;;;3.50;91.50;;;;;;21093996;28;20218;-59
2022/01/25 01:57:49;;;;;;;19.67;10.97;;;3.40;91.70;;;;;;21091928;28;20233;-60
2022/01/25 02:07:50;;;;;;;19.87;10.33;;;3.30;92.00;;;;;;21097422;28;20267;-62
2022/01/25 02:22:23;;;;;;;25.50;10.83;;;3.30;91.90;;;;;;21090533;28;20226;-63
2022/01/25 02:28:16;;;;;;;17.07;10.57;;;3.40;91.80;;;;;;21089878;28;20673;-61
2022/01/25 02:38:23;;;;;;;17.63;10.57;;;3.30;92.00;;;;;;21089456;28;20241;-60
2022/01/25 02:52:02;;;;;;;17.23;10.83;;;3.00;91.90;;;;;;20985150;28;20559;-61
2022/01/25 03:02:04;;;;;;;19.93;10.63;;;2.80;92.20;;;;;;20983817;28;20210;-62
2022/01/25 03:12:10;;;;;;;22.83;10.90;;;3.00;92.60;;;;;;20984613;28;20210;-60
2022/01/25 03:27:03;;;;;;;22.73;10.53;;;3.00;92.30;;;;;;21144671;27;20585;-61
2022/01/25 03:37:05;;;;;;;21.63;10.47;;;3.00;92.10;;;;;;21153231;28;20285;-60
2022/01/25 03:47:10;;;;;;;16.47;10.17;;;3.00;92.50;;;;;;21153117;28;20205;-61
2022/01/25 03:57:12;;;;;;;20.17;10.87;;;2.70;92.00;;;;;;21150000;28;20251;-60
2022/01/25 04:07:16;;;;;;;19.07;10.73;;;2.50;92.20;;;;;;21149498;28;20213;-63
2022/01/25 04:17:20;;;;;;;18.90;11.03;;;2.50;92.10;;;;;;21147095;28;20231;-60
2022/01/25 04:27:23;;;;;;;19.33;10.03;;;2.60;92.20;;;;;;21147652;28;20262;-60
2022/01/25 04:58:13;;;;;;;17.93;10.20;;;2.60;91.90;;;;;;21088794;28;20241;-61
2022/01/25 05:18:23;;;;;;;22.47;10.43;;;2.40;91.80;;;;;;21085743;28;20717;-59
2022/01/25 05:28:25;;;;;;;20.97;11.00;;;2.50;91.90;;;;;;21079584;28;20259;-62
2022/01/25 05:38:27;;;;;;;19.00;10.57;;;2.50;92.10;;;;;;21088232;28;20236;-62
2022/01/25 05:48:30;;;;;;;17.53;10.47;;;2.50;91.70;;;;;;21082659;28;20667;-65
2022/01/25 05:58:32;;;;;;;22.83;11.37;;;2.50;91.80;;;;;;21082931;28;20245;-61
2022/01/25 06:08:34;;;;;;;23.43;11.90;;;2.10;91.80;;;;;;21082934;28;20657;-60
2022/01/25 06:18:35;;;;;;;24.23;12.33;;;2.20;92.20;;;;;;21081063;28;20290;-64
2022/01/25 06:28:37;;;;;;;24.33;12.60;;;2.20;91.90;;;;;;21080533;28;20296;-59
2022/01/25 06:38:39;;;;;;;23.70;12.57;;;2.20;92.00;;;;;;21080502;28;20578;-61
2022/01/25 06:48:41;;;;;;;26.57;13.07;;;2.20;92.20;;;;;;21080236;28;20199;-59
2022/01/25 06:58:44;;;;;;;32.17;13.83;;;2.30;92.40;;;;;;21079324;28;20235;-61
2022/01/25 07:08:46;;;;;;;38.77;14.20;;;2.50;92.30;;;;;;21078196;28;20849;-59
2022/01/25 07:18:48;;;;;;;39.40;14.87;;;2.50;92.10;;;;;;21077256;28;20296;-68
2022/01/25 07:28:50;;;;;;;32.40;15.63;;;2.60;92.30;;;;;;21068160;28;20203;-63
2022/01/25 07:38:52;;;;;;;33.13;16.07;;;2.90;92.30;;;;;;21076170;28;20311;-62
2022/01/25 07:48:59;;;;;;;43.50;17.43;;;2.90;92.30;;;;;;21077458;28;20259;-63
2022/01/25 07:59:01;;;;;;;40.67;17.07;;;2.90;92.30;;;;;;21076042;28;20238;-61
2022/01/25 08:09:07;;;;;;;37.47;18.03;;;3.20;92.60;;;;;;21083531;28;20210;-61
2022/01/25 08:19:32;;;;;;;49.40;20.33;;;3.30;92.70;;;;;;21078609;28;20741;-60
2022/01/25 08:29:34;;;;;;;53.67;23.63;;;3.40;92.80;;;;;;21089235;28;20210;-59
2022/01/25 08:39:50;;;;;;;79.83;39.73;;;3.50;92.80;;;;;;20748691;28;20308;-61
2022/01/25 08:50:10;;;;;;;35.37;17.60;;;3.80;92.90;;;;;;20749298;28;20201;-59
2022/01/25 09:00:29;;;;;;;39.87;17.13;;;3.90;92.60;;;;;;20747423;28;20237;-60
2022/01/25 09:10:31;;;;;;;42.57;17.43;;;4.10;92.60;;;;;;20831238;28;20241;-59
2022/01/25 09:20:33;;;;;;;31.67;17.60;;;4.20;92.50;;;;;;21089638;28;20235;-71
2022/01/25 09:30:35;;;;;;;33.17;17.50;;;4.30;92.50;;;;;;21086382;28;20228;-61
2022/01/25 09:40:37;;;;;;;33.03;18.93;;;4.40;92.50;;;;;;21085388;28;20237;-63
2022/01/25 09:50:38;;;;;;;38.87;19.13;;;4.40;92.70;;;;;;21083628;28;20202;-61
2022/01/25 10:00:43;;;;;;;38.90;19.63;;;4.40;92.70;;;;;;21082488;28;20288;-61
2022/01/25 10:10:49;;;;;;;38.87;20.67;;;4.50;92.70;;;;;;21081515;28;20204;-64
2022/01/25 10:20:51;;;;;;;41.80;20.60;;;4.60;92.70;;;;;;21081712;28;20288;-61
2022/01/25 10:30:56;;;;;;;38.17;19.60;;;4.60;92.70;;;;;;21080504;28;20720;-59
2022/01/25 10:41:11;;;;;;;33.60;17.53;;;4.70;92.60;;;;;;21079909;28;20239;-59
2022/01/25 10:51:20;;;;;;;28.60;16.47;;;4.70;92.80;;;;;;21080030;28;20208;-59
2022/01/25 11:01:36;;;;;;;29.17;16.70;;;4.60;92.70;;;;;;21078256;28;20252;-59
2022/01/25 11:11:45;;;;;;;26.93;16.03;;;4.60;93.00;;;;;;21078470;28;20234;-59
2022/01/25 11:21:48;;;;;;;30.93;17.20;;;4.80;92.40;;;;;;21072405;28;20781;-60
2022/01/25 11:31:54;;;;;;;29.17;15.80;;;4.90;92.40;;;;;;21075405;28;20207;-65
2022/01/25 11:42:15;;;;;;;27.73;15.83;;;5.00;92.30;;;;;;21082807;28;20260;-61
2022/01/25 11:52:17;;;;;;;28.23;15.90;;;5.10;92.10;;;;;;21094604;28;20654;-60
2022/01/25 12:02:46;;;;;;;26.20;15.80;;;5.30;92.10;;;;;;21091487;28;20726;-64
2022/01/25 12:13:13;;;;;;;25.37;15.43;;;5.20;91.80;;;;;;21092178;28;20653;-64
2022/01/25 12:27:03;;;;;;;24.73;15.27;;;5.10;91.70;;;;;;21066739;28;20551;-62
2022/01/25 12:37:06;;;;;;;33.00;15.47;;;5.20;91.80;;;;;;21065164;28;20237;-66
2022/01/25 12:47:08;;;;;;;27.77;16.37;;;5.30;91.70;;;;;;21064648;28;20662;-68
2022/01/25 12:57:10;;;;;;;28.13;16.67;;;5.40;91.90;;;;;;21063559;28;20571;-67
2022/01/25 13:25:55;;;;;;;34.63;17.07;;;5.40;91.80;;;;;;20944601;28;20269;-61
2022/01/25 13:35:57;;;;;;;31.03;16.17;;;5.50;91.90;;;;;;20895885;28;20200;-60
2022/01/25 13:46:04;;;;;;;33.23;18.80;;;5.50;92.10;;;;;;20899412;28;20229;-67
2022/01/25 13:56:11;;;;;;;32.63;18.03;;;5.60;92.40;;;;;;20898901;28;20214;-67
2022/01/25 14:06:25;;;;;;;37.30;18.93;;;5.70;92.20;;;;;;20895993;28;20577;-63
2022/01/25 14:26:47;;;;;;;34.77;18.17;;;5.80;92.40;;;;;;20852227;28;20237;-62
2022/01/25 14:36:50;;;;;;;35.90;18.57;;;5.90;92.30;;;;;;20843524;28;20204;-67
2022/01/25 14:46:53;;;;;;;36.10;19.20;;;5.90;92.30;;;;;;20925493;28;20242;-73
2022/01/25 14:57:08;;;;;;;32.83;18.03;;;5.90;92.40;;;;;;20930559;28;20206;-69
2022/01/25 15:07:14;;;;;;;26.83;16.63;;;5.90;92.40;;;;;;20919740;28;20236;-71
2022/01/25 15:17:16;;;;;;;31.60;17.23;;;5.90;92.60;;;;;;20910531;28;20214;-61
2022/01/25 15:27:22;;;;;;;34.40;18.30;;;5.90;92.40;;;;;;20835254;28;20676;-62
2022/01/25 15:37:24;;;;;;;31.47;17.30;;;5.80;92.40;;;;;;20833142;28;20671;-63
2022/01/25 15:47:28;;;;;;;37.87;19.60;;;5.70;92.30;;;;;;20834260;28;20229;-62
2022/01/25 15:57:30;;;;;;;42.27;19.27;;;5.60;92.60;;;;;;20833578;28;20274;-71
2022/01/25 16:07:32;;;;;;;42.73;19.80;;;5.50;92.50;;;;;;20833073;28;20244;-62
2022/01/25 16:17:34;;;;;;;40.10;20.57;;;5.40;92.70;;;;;;20838049;28;20205;-63
2022/01/25 16:27:37;;;;;;;46.73;20.43;;;5.50;92.90;;;;;;20831026;28;20236;-61
2022/01/25 16:37:38;;;;;;;39.27;19.73;;;5.40;93.00;;;;;;20831328;28;20725;-63
2022/01/25 16:47:41;;;;;;;39.27;19.57;;;5.50;93.30;;;;;;20831420;28;20309;-63
2022/01/25 16:57:43;;;;;;;37.90;19.40;;;5.50;93.00;;;;;;20830280;28;20212;-62
2022/01/25 17:07:44;;;;;;;39.30;20.00;;;5.50;93.00;;;;;;20828999;28;20237;-62
2022/01/25 17:17:46;;;;;;;40.90;19.23;;;5.30;93.10;;;;;;20829190;28;20204;-62
2022/01/25 17:27:48;;;;;;;39.87;18.97;;;5.20;93.20;;;;;;20829618;28;20244;-62
2022/01/25 17:37:52;;;;;;;37.83;18.73;;;5.20;93.40;;;;;;20862267;28;20247;-64
2022/01/25 17:47:54;;;;;;;37.53;19.30;;;5.20;93.50;;;;;;20910606;28;20724;-64
2022/01/25 17:57:56;;;;;;;40.97;20.30;;;5.30;93.50;;;;;;20917829;28;20228;-63
2022/01/25 18:07:59;;;;;;;34.60;18.53;;;5.20;93.50;;;;;;20923197;28;20730;-62
2022/01/25 18:18:01;;;;;;;37.83;18.50;;;;;;;;;;20929158;28;20236;-64
2022/01/25 18:28:06;;;;;;;38.60;19.30;;;5.20;93.40;;;;;;20921683;28;20232;-63
2022/01/25 18:38:08;;;;;;;33.43;16.93;;;5.30;93.90;;;;;;20920471;28;20252;-64
2022/01/25 18:48:14;;;;;;;30.27;16.20;;;5.30;93.50;;;;;;20920067;28;20287;-63
2022/01/25 18:58:25;;;;;;;35.97;15.60;;;5.30;93.50;;;;;;21065569;27;20557;-63
2022/01/25 19:08:26;;;;;;;34.63;16.77;;;5.20;93.40;;;;;;21066172;28;20681;-62
2022/01/25 19:21:17;;;;;;;35.03;17.73;;;5.20;93.60;;;;;;20960406;28;20583;-64
2022/01/25 19:31:19;;;;;;;35.20;17.63;;;5.10;93.80;;;;;;20900281;28;20213;-64
2022/01/25 19:41:21;;;;;;;32.83;16.67;;;5.30;93.80;;;;;;20833399;28;20210;-62
2022/01/25 19:51:25;;;;;;;31.43;16.87;;;5.40;93.70;;;;;;20816662;28;20621;-61
2022/01/25 20:01:28;;;;;;;35.73;18.20;;;5.40;93.50;;;;;;20816175;28;20223;-62
2022/01/25 20:11:31;;;;;;;37.93;17.13;;;5.40;93.50;;;;;;20759781;28;20646;-65
2022/01/25 20:21:39;;;;;;;40.30;18.57;;;5.40;93.60;;;;;;20813595;28;20332;-63
2022/01/25 20:31:41;;;;;;;39.13;19.07;;;5.40;93.50;;;;;;20770160;28;20233;-64
2022/01/25 20:41:45;;;;;;;37.83;18.57;;;5.50;93.60;;;;;;20761424;28;20580;-64
2022/01/25 20:51:46;;;;;;;33.67;17.67;;;5.50;93.80;;;;;;20774162;28;20430;-62
2022/01/25 21:01:50;;;;;;;37.67;20.50;;;5.40;93.50;;;;;;20755210;28;20202;-64
2022/01/25 21:12:01;;;;;;;35.33;16.70;;;5.40;93.50;;;;;;20755049;28;20238;-63
2022/01/25 21:22:03;;;;;;;34.37;16.60;;;5.40;93.80;;;;;;20756216;28;20218;-64
2022/01/25 21:32:06;;;;;;;28.73;14.43;;;5.30;93.60;;;;;;20755134;28;20260;-63
2022/01/25 21:42:08;;;;;;;31.93;14.97;;;5.20;93.70;;;;;;20747536;28;20292;-63
2022/01/25 21:52:10;;;;;;;23.90;13.10;;;5.20;93.80;;;;;;20751708;28;20225;-63
2022/01/25 22:02:12;;;;;;;20.00;10.93;;;5.20;94.00;;;;;;20751023;28;20212;-63
2022/01/25 22:12:19;;;;;;;23.53;12.33;;;5.20;93.80;;;;;;20748600;28;20279;-62
2022/01/25 22:22:21;;;;;;;20.47;11.47;;;5.20;94.10;;;;;;20745414;28;20213;-63
2022/01/25 22:32:23;;;;;;;19.17;10.17;;;5.20;94.00;;;;;;20748624;28;20395;-63
2022/01/25 22:42:25;;;;;;;17.80;9.43;;;5.00;93.60;;;;;;20746393;28;20737;-62
2022/01/25 22:52:26;;;;;;;15.90;7.87;;;5.10;93.40;;;;;;20749982;28;20233;-63
2022/01/25 23:02:28;;;;;;;14.67;8.40;;;5.00;93.00;;;;;;20748800;28;20216;-63
2022/01/25 23:12:57;;;;;;;17.30;9.00;;;4.90;93.00;;;;;;20748355;28;20647;-67
2022/01/25 23:22:55;;;;;;;14.37;7.60;;;4.90;93.00;;;;;;20766084;28;20296;-63
2022/01/25 23:33:27;;;;;;;15.73;8.40;;;4.90;93.00;;;;;;20809782;28;20584;-64
2022/01/25 23:43:37;;;;;;;14.90;8.17;;;4.90;92.70;;;;;;20828073;28;20624;-63
